createdAt,value
2022-09-14T00:01:27.528Z,3.70
2022-09-14T00:03:57.882Z,3.27
2022-09-14T00:06:26.350Z,3.30
2022-09-14T00:08:55.640Z,4.47
2022-09-14T00:11:25.167Z,3.10
2022-09-14T00:13:54.762Z,2.93
2022-09-14T00:16:25.177Z,3.13
2022-09-14T00:18:54.014Z,3.67
2022-09-14T00:21:22.548Z,3.13
2022-09-14T00:23:50.397Z,3.90
2022-09-14T00:26:20.593Z,2.87
2022-09-14T00:28:50.693Z,4.03
2022-09-14T00:31:21.038Z,3.57
2022-09-14T00:33:50.430Z,2.90
2022-09-14T00:36:20.987Z,3.53
2022-09-14T00:38:49.222Z,4.00
2022-09-14T00:41:19.762Z,3.27
2022-09-14T00:43:59.408Z,3.63
2022-09-14T00:46:30.158Z,4.10
2022-09-14T00:49:00.858Z,2.73
2022-09-14T00:51:30.189Z,3.57
2022-09-14T00:53:58.288Z,3.30
2022-09-14T00:56:26.703Z,3.60
2022-09-14T00:58:56.325Z,3.13
2022-09-14T01:01:24.099Z,3.40
2022-09-14T01:03:53.197Z,3.00
2022-09-14T01:06:35.393Z,3.40
2022-09-14T01:09:23.057Z,3.57
2022-09-14T01:12:07.048Z,3.40
2022-09-14T01:14:43.305Z,3.33
2022-09-14T01:17:20.818Z,3.60
2022-09-14T01:20:16.077Z,3.40
2022-09-14T01:22:48.596Z,3.63
2022-09-14T01:25:29.193Z,3.17
2022-09-14T01:28:02.783Z,3.50
2022-09-14T01:30:35.472Z,3.90
2022-09-14T01:33:10.749Z,4.30
2022-09-14T01:35:44.363Z,3.50
2022-09-14T01:38:18.460Z,3.30
2022-09-14T01:40:48.186Z,3.33
2022-09-14T01:43:21.567Z,3.50
2022-09-14T01:45:52.839Z,3.40
2022-09-14T01:48:25.811Z,3.50
2022-09-14T01:50:57.194Z,3.00
2022-09-14T01:53:30.754Z,2.87
2022-09-14T01:56:02.703Z,3.80
2022-09-14T01:58:37.696Z,3.20
2022-09-14T02:01:08.926Z,2.50
2022-09-14T02:03:41.992Z,3.23
2022-09-14T02:06:17.563Z,2.70
2022-09-14T02:08:45.274Z,2.40
2022-09-14T02:11:13.054Z,2.70
2022-09-14T02:13:42.123Z,3.20
2022-09-14T02:16:09.882Z,2.97
2022-09-14T02:18:38.686Z,2.60
2022-09-14T02:21:11.514Z,3.00
2022-09-14T02:23:39.306Z,2.53
2022-09-14T02:26:07.263Z,3.40
2022-09-14T02:28:35.191Z,2.73
2022-09-14T02:31:18.091Z,2.67
2022-09-14T02:33:53.291Z,3.40
2022-09-14T02:36:26.433Z,3.13
2022-09-14T02:39:00.241Z,3.70
2022-09-14T02:41:39.743Z,2.77
2022-09-14T02:44:19.911Z,2.43
2022-09-14T02:46:56.480Z,2.80
2022-09-14T02:49:30.748Z,2.43
2022-09-14T02:52:06.790Z,2.00
2022-09-14T02:54:38.894Z,1.77
2022-09-14T02:57:06.633Z,2.27
2022-09-14T02:59:34.704Z,2.67
2022-09-14T03:02:03.906Z,2.20
2022-09-14T03:04:31.641Z,2.10
2022-09-14T03:06:59.345Z,2.07
2022-09-14T03:09:27.007Z,2.23
2022-09-14T03:11:54.743Z,2.40
2022-09-14T03:14:22.399Z,2.17
2022-09-14T03:16:50.100Z,2.07
2022-09-14T03:19:19.123Z,2.30
2022-09-14T03:21:46.757Z,2.70
2022-09-14T03:24:14.409Z,2.83
2022-09-14T03:26:42.064Z,2.50
2022-09-14T03:29:09.747Z,2.93
2022-09-14T03:31:37.871Z,2.13
2022-09-14T03:34:05.591Z,2.47
2022-09-14T03:36:34.567Z,2.50
2022-09-14T03:39:02.719Z,2.30
2022-09-14T03:41:30.817Z,2.70
2022-09-14T03:43:58.477Z,2.30
2022-09-14T03:46:26.954Z,2.67
2022-09-14T03:48:56.115Z,1.77
2022-09-14T03:51:24.349Z,1.70
2022-09-14T03:53:53.518Z,1.90
2022-09-14T03:56:22.590Z,1.83
2022-09-14T03:58:51.341Z,2.00
2022-09-14T04:01:20.849Z,1.60
2022-09-14T04:03:49.291Z,1.90
2022-09-14T04:06:17.842Z,1.90
2022-09-14T04:08:47.161Z,1.93
2022-09-14T04:11:18.154Z,1.63
2022-09-14T04:13:46.694Z,1.83
2022-09-14T04:16:15.471Z,1.97
2022-09-14T04:18:43.226Z,1.87
2022-09-14T04:21:14.498Z,2.00
2022-09-14T04:24:10.093Z,1.90
2022-09-14T04:26:33.030Z,1.90
2022-09-14T04:29:00.671Z,2.20
2022-09-14T04:31:28.644Z,1.77
2022-09-14T04:33:57.456Z,2.17
2022-09-14T04:36:30.999Z,1.47
2022-09-14T04:39:00.836Z,1.90
2022-09-14T04:41:29.986Z,1.80
2022-09-14T04:43:59.805Z,1.83
2022-09-14T04:46:30.175Z,2.10
2022-09-14T04:48:58.059Z,2.10
2022-09-14T04:51:28.079Z,1.90
2022-09-14T04:53:57.894Z,1.97
2022-09-14T04:56:26.783Z,1.83
2022-09-14T04:58:56.743Z,1.47
2022-09-14T05:01:28.220Z,1.33
2022-09-14T05:03:58.716Z,1.63
2022-09-14T05:06:30.039Z,1.87
2022-09-14T05:08:59.148Z,1.53
2022-09-14T05:11:28.550Z,1.83
2022-09-14T05:13:56.456Z,1.57
2022-09-14T05:16:27.718Z,1.40
2022-09-14T05:18:58.522Z,1.10
2022-09-14T05:21:26.478Z,1.70
2022-09-14T05:23:55.749Z,1.47
2022-09-14T05:26:24.444Z,1.57
2022-09-14T05:28:53.532Z,1.37
2022-09-14T05:31:22.022Z,1.50
2022-09-14T05:33:53.740Z,1.97
2022-09-14T05:36:21.589Z,1.40
2022-09-14T05:38:49.704Z,1.87
2022-09-14T05:41:17.765Z,1.37
2022-09-14T05:43:46.047Z,1.73
2022-09-14T05:46:15.141Z,2.10
2022-09-14T05:48:43.179Z,1.47
2022-09-14T05:51:14.769Z,1.53
2022-09-14T05:53:42.876Z,1.50
2022-09-14T05:56:12.559Z,1.57
2022-09-14T05:58:41.202Z,2.00
2022-09-14T06:01:11.170Z,1.80
2022-09-14T06:03:39.448Z,1.63
2022-09-14T06:06:08.642Z,1.70
2022-09-14T06:08:38.346Z,1.87
2022-09-14T06:11:07.421Z,1.90
2022-09-14T06:13:37.884Z,1.70
2022-09-14T06:16:06.686Z,2.37
2022-09-14T06:18:35.559Z,1.70
2022-09-14T06:21:04.476Z,2.27
2022-09-14T06:23:33.460Z,2.03
2022-09-14T06:26:03.720Z,2.13
2022-09-14T06:28:32.351Z,2.30
2022-09-14T06:31:00.279Z,1.93
2022-09-14T06:33:28.085Z,2.00
2022-09-14T06:35:56.897Z,2.23
2022-09-14T06:38:24.878Z,2.23
2022-09-14T06:40:54.129Z,2.00
2022-09-14T06:43:23.371Z,2.93
2022-09-14T06:45:58.921Z,1.90
2022-09-14T06:48:27.384Z,1.77
2022-09-14T06:50:55.142Z,2.00
2022-09-14T06:53:22.798Z,2.10
2022-09-14T06:55:50.667Z,2.43
2022-09-14T06:58:18.372Z,1.70
2022-09-14T07:00:47.628Z,2.00
2022-09-14T07:03:15.383Z,2.47
2022-09-14T07:05:43.047Z,1.53
2022-09-14T07:08:13.319Z,1.80
2022-09-14T07:10:43.070Z,1.60
2022-09-14T07:13:10.837Z,1.60
2022-09-14T07:15:38.519Z,1.40
2022-09-14T07:18:07.609Z,2.23
2022-09-14T07:20:35.368Z,1.77
2022-09-14T07:23:03.117Z,1.97
2022-09-14T07:25:30.933Z,1.37
2022-09-14T07:28:00.684Z,1.70
2022-09-14T07:30:28.625Z,1.90
2022-09-14T07:32:56.522Z,1.90
2022-09-14T07:35:25.811Z,1.67
2022-09-14T07:37:53.539Z,1.60
2022-09-14T07:40:22.975Z,1.67
2022-09-14T07:42:55.558Z,1.30
2022-09-14T07:45:25.376Z,1.60
2022-09-14T07:47:53.031Z,2.93
2022-09-14T07:50:20.749Z,2.10
2022-09-14T07:52:52.214Z,2.03
2022-09-14T07:55:20.318Z,1.50
2022-09-14T07:57:56.075Z,1.43
2022-09-14T08:00:25.578Z,1.60
2022-09-14T08:02:55.132Z,1.70
2022-09-14T08:05:22.986Z,1.97
2022-09-14T08:07:55.770Z,1.60
2022-09-14T08:10:24.213Z,1.97
2022-09-14T08:12:53.009Z,1.63
2022-09-14T08:15:24.146Z,1.37
2022-09-14T08:17:55.431Z,1.50
2022-09-14T08:20:23.401Z,2.00
2022-09-14T08:22:51.017Z,1.70
2022-09-14T08:25:20.060Z,1.40
2022-09-14T08:27:47.738Z,1.60
2022-09-14T08:30:15.391Z,1.87
2022-09-14T08:32:42.992Z,1.57
2022-09-14T08:35:10.673Z,1.37
2022-09-14T08:37:38.326Z,1.30
2022-09-14T08:40:06.659Z,1.30
2022-09-14T08:42:41.041Z,1.40
2022-09-14T08:45:12.979Z,1.37
2022-09-14T08:52:06.337Z,1.40
2022-09-14T08:54:34.014Z,1.30
2022-09-14T08:57:10.434Z,1.40
2022-09-14T08:59:48.938Z,1.43
2022-09-14T09:02:43.324Z,2.07
2022-09-14T09:05:26.515Z,1.40
2022-09-14T09:07:59.646Z,1.43
2022-09-14T09:10:28.484Z,1.43
2022-09-14T09:12:59.155Z,1.73
2022-09-14T09:15:32.019Z,2.00
2022-09-14T09:18:03.187Z,1.83
2022-09-14T09:20:33.569Z,1.70
2022-09-14T09:23:12.730Z,1.67
2022-09-14T09:25:51.502Z,1.33
2022-09-14T09:28:21.115Z,1.20
2022-09-14T09:30:50.388Z,1.47
2022-09-14T09:33:22.223Z,2.00
2022-09-14T09:36:03.037Z,1.63
2022-09-14T09:38:31.811Z,0.97
2022-09-14T09:41:07.520Z,1.70
2022-09-14T09:43:48.839Z,1.90
2022-09-14T09:46:19.054Z,1.43
2022-09-14T09:48:48.316Z,2.23
2022-09-14T09:51:22.153Z,1.43
2022-09-14T09:53:55.187Z,1.80
2022-09-14T09:56:26.369Z,1.33
2022-09-14T09:58:54.518Z,1.30
2022-09-14T10:01:28.797Z,1.63
2022-09-14T10:04:06.810Z,1.43
2022-09-14T10:06:42.668Z,1.70
2022-09-14T10:09:15.204Z,1.83
2022-09-14T10:11:43.339Z,1.27
2022-09-14T10:14:27.592Z,1.27
2022-09-14T10:17:06.250Z,1.93
2022-09-14T10:19:34.343Z,1.50
2022-09-14T10:22:19.241Z,2.03
2022-09-14T10:24:58.427Z,1.60
2022-09-14T10:27:43.063Z,1.27
2022-09-14T10:30:15.510Z,1.73
2022-09-14T10:32:50.019Z,1.90
2022-09-14T10:35:18.621Z,1.30
2022-09-14T10:37:58.093Z,1.80
2022-09-14T10:40:36.506Z,1.53
2022-09-14T10:43:29.773Z,1.70
2022-09-14T10:46:03.112Z,1.93
2022-09-14T10:49:01.067Z,1.50
2022-09-14T10:51:50.230Z,1.93
2022-09-14T10:54:37.152Z,1.87
2022-09-14T10:57:14.458Z,1.57
2022-09-14T10:59:53.405Z,1.30
2022-09-14T11:02:49.379Z,1.60
2022-09-14T11:05:23.675Z,1.50
2022-09-14T11:08:07.646Z,2.10
2022-09-14T11:10:46.377Z,1.30
2022-09-14T11:13:32.408Z,1.60
2022-09-14T11:16:10.946Z,1.47
2022-09-14T11:18:46.480Z,2.23
2022-09-14T11:21:24.495Z,1.57
2022-09-14T11:24:28.540Z,1.60
2022-09-14T11:27:04.053Z,2.33
2022-09-14T11:29:35.990Z,1.70
2022-09-14T11:32:21.434Z,1.83
2022-09-14T11:34:56.153Z,2.17
2022-09-14T11:37:33.708Z,1.63
2022-09-14T11:40:08.068Z,1.77
2022-09-14T11:42:46.729Z,1.33
2022-09-14T11:45:23.419Z,2.60
2022-09-14T11:47:58.937Z,1.60
2022-09-14T11:50:28.646Z,1.97
2022-09-14T11:53:04.788Z,1.77
2022-09-14T11:55:33.134Z,2.00
2022-09-14T11:58:02.411Z,1.37
2022-09-14T12:01:05.022Z,1.50
2022-09-14T12:04:04.812Z,1.70
2022-09-14T12:06:59.739Z,1.70
2022-09-14T12:10:15.584Z,1.37
2022-09-14T12:12:44.930Z,2.03
2022-09-14T12:15:33.908Z,1.60
2022-09-14T12:18:22.531Z,1.80
2022-09-14T12:21:00.681Z,1.97
2022-09-14T12:23:31.920Z,2.53
2022-09-14T12:26:08.388Z,2.67
2022-09-14T12:28:48.234Z,1.43
2022-09-14T12:31:39.390Z,2.07
2022-09-14T12:34:17.146Z,1.40
2022-09-14T12:37:00.175Z,1.67
2022-09-14T12:39:30.464Z,1.40
2022-09-14T12:42:25.389Z,1.90
2022-09-14T12:44:53.979Z,1.67
2022-09-14T12:47:58.194Z,1.63
2022-09-14T12:50:32.789Z,1.67
2022-09-14T12:53:19.867Z,1.30
2022-09-14T12:56:03.028Z,1.60
2022-09-14T12:59:10.024Z,1.47
2022-09-14T13:01:48.471Z,2.00
2022-09-14T13:04:27.084Z,1.40
2022-09-14T13:06:56.968Z,1.53
2022-09-14T13:09:26.985Z,1.77
2022-09-14T13:11:57.867Z,2.27
2022-09-14T13:14:30.653Z,2.20
2022-09-14T13:17:01.003Z,1.30
2022-09-14T13:19:30.824Z,1.80
2022-09-14T13:22:00.382Z,1.73
2022-09-14T13:24:32.512Z,1.40
2022-09-14T13:27:02.995Z,1.27
2022-09-14T13:29:32.358Z,1.43
2022-09-14T13:32:03.999Z,2.80
2022-09-14T13:34:35.969Z,2.30
2022-09-14T13:37:04.162Z,1.60
2022-09-14T13:39:35.543Z,1.97
2022-09-14T13:42:04.410Z,1.40
2022-09-14T13:44:37.020Z,1.40
2022-09-14T13:47:06.454Z,1.57
2022-09-14T13:49:36.144Z,1.73
2022-09-14T13:52:57.136Z,1.70
2022-09-14T13:55:22.483Z,1.70
2022-09-14T13:58:07.675Z,1.80
2022-09-14T14:00:49.248Z,1.90
2022-09-14T14:03:26.123Z,1.97
2022-09-14T14:05:54.259Z,2.03
2022-09-14T14:08:29.545Z,1.80
2022-09-14T14:10:58.231Z,1.20
2022-09-14T14:13:26.642Z,1.87
2022-09-14T14:16:14.556Z,1.30
2022-09-14T14:18:44.889Z,1.70
2022-09-14T14:21:24.659Z,1.77
2022-09-14T14:24:20.433Z,1.83
2022-09-14T14:26:49.860Z,1.67
2022-09-14T14:29:17.957Z,2.00
2022-09-14T14:31:47.322Z,1.90
2022-09-14T14:34:20.702Z,1.60
2022-09-14T14:36:50.046Z,1.80
2022-09-14T14:39:20.567Z,1.90
2022-09-14T14:41:49.009Z,2.00
2022-09-14T14:44:19.192Z,1.93
2022-09-14T14:46:48.892Z,1.27
2022-09-14T14:49:18.411Z,1.63
2022-09-14T14:51:46.036Z,1.30
2022-09-14T14:54:16.268Z,1.87
2022-09-14T14:56:44.516Z,1.00
2022-09-14T14:59:18.033Z,1.00
2022-09-14T15:01:46.118Z,1.43
2022-09-14T15:04:15.534Z,1.40
2022-09-14T15:06:43.246Z,1.77
2022-09-14T15:09:15.885Z,1.43
2022-09-14T15:11:43.657Z,1.80
2022-09-14T15:14:13.182Z,1.30
2022-09-14T15:16:41.036Z,1.53
2022-09-14T15:19:10.284Z,1.30
2022-09-14T15:21:40.071Z,0.90
2022-09-14T15:24:08.265Z,1.23
2022-09-14T15:26:36.575Z,1.00
2022-09-14T15:29:04.881Z,1.00
2022-09-14T15:31:33.263Z,1.00
2022-09-14T15:34:00.981Z,1.70
2022-09-14T15:36:47.655Z,1.50
2022-09-14T15:39:15.937Z,1.30
2022-09-14T15:41:43.962Z,0.80
2022-09-14T15:44:12.181Z,0.80
2022-09-14T15:46:41.190Z,0.90
2022-09-14T15:49:12.536Z,1.20
2022-09-14T15:51:45.279Z,1.47
2022-09-14T15:54:13.620Z,1.43
2022-09-14T15:56:41.989Z,1.80
2022-09-14T15:59:09.886Z,1.60
2022-09-14T16:01:37.955Z,1.50
2022-09-14T16:04:11.623Z,1.70
2022-09-14T16:06:40.627Z,1.97
2022-09-14T16:09:11.376Z,1.97
2022-09-14T16:11:40.081Z,1.67
2022-09-14T16:14:09.473Z,2.27
2022-09-14T16:16:38.549Z,1.97
2022-09-14T16:19:06.955Z,1.97
2022-09-14T16:21:34.568Z,1.90
2022-09-14T16:24:05.025Z,1.70
2022-09-14T16:26:36.636Z,1.83
2022-09-14T16:29:05.660Z,2.77
2022-09-14T16:31:36.435Z,1.93
2022-09-14T16:34:11.713Z,2.50
2022-09-14T16:36:41.402Z,2.30
2022-09-14T16:39:11.839Z,2.20
2022-09-14T16:41:42.192Z,2.63
2022-09-14T16:44:17.370Z,2.73
2022-09-14T16:46:45.319Z,2.30
2022-09-14T16:49:13.392Z,2.40
2022-09-14T16:51:41.096Z,2.50
2022-09-14T16:54:09.268Z,2.07
2022-09-14T16:56:38.949Z,1.60
2022-09-14T16:59:08.437Z,2.27
2022-09-14T17:01:39.400Z,2.30
2022-09-14T17:04:11.527Z,2.37
2022-09-14T17:06:42.026Z,2.23
2022-09-14T17:09:11.175Z,2.37
2022-09-14T17:11:40.572Z,2.60
2022-09-14T17:14:14.012Z,2.10
2022-09-14T17:16:41.700Z,2.47
2022-09-14T17:19:09.548Z,1.93
2022-09-14T17:21:38.838Z,2.23
2022-09-14T17:24:07.907Z,2.13
2022-09-14T17:26:36.423Z,2.70
2022-09-14T17:29:05.439Z,2.57
2022-09-14T17:31:36.801Z,3.10
2022-09-14T17:34:06.450Z,2.57
2022-09-14T17:36:34.209Z,2.77
2022-09-14T17:39:06.791Z,3.07
2022-09-14T17:41:38.526Z,2.70
2022-09-14T17:44:07.608Z,3.70
2022-09-14T17:46:44.432Z,3.70
2022-09-14T17:49:16.197Z,2.90
2022-09-14T17:51:45.124Z,2.80
2022-09-14T17:54:13.345Z,3.13
2022-09-14T17:56:41.187Z,2.90
2022-09-14T17:59:12.093Z,2.90
2022-09-14T18:01:41.749Z,2.17
2022-09-14T18:04:11.998Z,2.63
2022-09-14T18:06:42.206Z,2.30
2022-09-14T18:09:13.241Z,2.27
2022-09-14T18:11:41.342Z,1.90
2022-09-14T18:14:12.589Z,1.87
2022-09-14T18:16:42.246Z,3.13
2022-09-14T18:19:10.405Z,2.40
2022-09-14T18:21:38.130Z,3.00
2022-09-14T18:24:06.590Z,1.83
2022-09-14T18:26:34.362Z,3.20
2022-09-14T18:29:03.587Z,2.80
2022-09-14T23:01:42.230Z,1.37
2022-09-14T23:04:12.385Z,1.67
2022-09-14T23:06:42.200Z,1.40
2022-09-14T23:09:12.764Z,2.00
2022-09-14T23:11:42.141Z,1.17
2022-09-14T23:14:09.858Z,1.50
2022-09-14T23:16:39.084Z,1.07
2022-09-14T23:19:07.787Z,1.43
2022-09-14T23:21:35.904Z,0.83
2022-09-14T23:24:10.995Z,1.10
2022-09-14T23:26:39.196Z,1.20
2022-09-14T23:29:09.578Z,1.23
2022-09-14T23:31:37.381Z,1.00
2022-09-14T23:34:07.209Z,1.40
2022-09-14T23:36:35.411Z,1.60
2022-09-14T23:39:03.291Z,1.43
2022-09-14T23:41:31.403Z,1.33
2022-09-14T23:43:59.108Z,1.40
2022-09-14T23:46:27.088Z,1.40
2022-09-14T23:48:54.930Z,1.13
2022-09-14T23:51:24.533Z,1.20
2022-09-14T23:53:52.311Z,1.00
2022-09-14T23:56:20.055Z,1.30
2022-09-14T23:58:47.870Z,1.23
